createdAt,value
2023-01-13T00:00:01.152Z,9.2
2023-01-13T00:10:02.024Z,9.2
2023-01-13T00:20:01.129Z,9.2
2023-01-13T00:30:01.142Z,9.4
2023-01-13T00:40:01.041Z,9.3
2023-01-13T00:50:01.008Z,9.4
2023-01-13T01:00:01.095Z,9.5
2023-01-13T01:10:02.208Z,9.5
2023-01-13T01:20:01.091Z,9.5
2023-01-13T01:30:01.547Z,9.5
2023-01-13T01:40:01.717Z,9.5
2023-01-13T02:00:02.139Z,9.7
2023-01-13T02:10:01.054Z,9.8
2023-01-13T02:20:01.120Z,9.8
2023-01-13T02:30:02.287Z,9.8
2023-01-13T02:40:01.094Z,9.8
2023-01-13T02:50:02.143Z,9.7
2023-01-13T03:10:00.991Z,9.6
2023-01-13T03:20:01.141Z,9.8
2023-01-13T03:30:02.914Z,9.8
2023-01-13T03:40:01.052Z,9.7
2023-01-13T03:50:02.600Z,9.6
2023-01-13T04:00:01.027Z,9.7
2023-01-13T04:10:01.978Z,9.7
2023-01-13T04:20:01.252Z,9.7
2023-01-13T04:30:01.012Z,9.7
2023-01-13T04:40:01.084Z,9.7
2023-01-13T04:50:01.085Z,9.6
2023-01-13T05:00:01.883Z,9.6
2023-01-13T05:10:01.492Z,9.7
2023-01-13T05:20:01.034Z,9.8
2023-01-13T05:30:00.523Z,9.4
2023-01-13T05:40:03.569Z,9.6
2023-01-13T05:50:01.269Z,9.7
2023-01-13T06:00:01.294Z,9.9
2023-01-13T06:10:01.305Z,10.1
2023-01-13T06:20:01.921Z,10.0
2023-01-13T06:30:01.884Z,10.0
2023-01-13T06:40:01.913Z,10.1
2023-01-13T06:50:01.249Z,10.1
2023-01-13T07:00:01.269Z,9.7
2023-01-13T07:10:02.056Z,9.9
2023-01-13T07:20:01.267Z,10.0
2023-01-13T07:30:01.536Z,10.1
2023-01-13T07:40:03.621Z,9.9
2023-01-13T07:50:00.523Z,10.0
2023-01-13T08:00:01.579Z,10.0
2023-01-13T08:10:01.258Z,9.8
2023-01-13T08:20:01.317Z,9.8
2023-01-13T08:30:01.344Z,9.6
2023-01-13T08:40:01.014Z,9.7
2023-01-13T08:50:00.981Z,9.6
2023-01-13T09:00:02.949Z,9.6
2023-01-13T09:10:01.025Z,9.6
2023-01-13T09:20:01.823Z,9.6
2023-01-13T09:30:00.518Z,9.7
2023-01-13T09:40:01.096Z,9.7
2023-01-13T09:50:01.326Z,9.5
2023-01-13T10:10:01.476Z,9.4
2023-01-13T10:20:01.066Z,9.3
2023-01-13T10:30:01.220Z,9.3
2023-01-13T10:40:02.254Z,9.3
2023-01-13T10:50:01.412Z,9.9
2023-01-13T11:00:01.598Z,9.4
2023-01-13T11:10:01.424Z,9.5
2023-01-13T11:20:01.273Z,11.5
2023-01-13T11:30:01.053Z,12.2
2023-01-13T11:40:01.366Z,12.3
2023-01-13T11:50:01.094Z,12.0
2023-01-13T12:00:01.826Z,12.1
2023-01-13T12:10:02.227Z,12.8
2023-01-13T12:20:02.443Z,12.3
2023-01-13T12:30:02.082Z,13.0
2023-01-13T12:40:01.058Z,12.6
2023-01-13T12:50:01.011Z,12.8
2023-01-13T13:00:01.061Z,12.0
2023-01-13T13:10:01.291Z,11.3
2023-01-13T13:20:00.511Z,11.5
2023-01-13T13:30:01.306Z,12.1
2023-01-13T13:40:01.355Z,11.2
2023-01-13T13:50:01.210Z,11.5
2023-01-13T14:00:02.210Z,12.0
2023-01-13T14:10:01.285Z,10.0
2023-01-13T14:20:03.319Z,10.0
2023-01-13T14:30:00.575Z,9.9
2023-01-13T14:40:02.094Z,10.5
2023-01-13T14:50:00.940Z,9.9
2023-01-13T15:00:01.179Z,10.1
2023-01-13T15:10:01.198Z,9.9
2023-01-13T15:20:01.145Z,9.6
2023-01-13T15:30:03.789Z,9.3
2023-01-13T15:40:01.009Z,9.2
2023-01-13T15:50:02.524Z,9.1
2023-01-13T16:00:01.121Z,9.1
2023-01-13T16:10:00.997Z,9.2
2023-01-13T16:20:01.267Z,8.9
2023-01-13T16:30:00.969Z,8.9
2023-01-13T16:40:01.878Z,9.0
2023-01-13T16:50:01.265Z,8.8
2023-01-13T17:00:01.151Z,8.5
2023-01-13T17:10:01.332Z,8.6
2023-01-13T17:20:01.548Z,8.7
2023-01-13T17:30:02.053Z,8.1
2023-01-13T18:10:01.017Z,8.3
2023-01-13T18:20:01.147Z,8.5
2023-01-13T18:30:04.264Z,8.6
2023-01-13T18:40:01.285Z,8.8
2023-01-13T18:50:01.305Z,8.6
2023-01-13T19:00:01.486Z,8.5
2023-01-13T19:10:01.029Z,8.6
2023-01-13T19:20:01.092Z,8.6
2023-01-13T19:30:03.220Z,8.7
2023-01-13T19:40:00.546Z,8.8
2023-01-13T19:50:02.362Z,8.7
2023-01-13T20:00:01.146Z,8.7
2023-01-13T20:10:01.572Z,8.6
2023-01-13T20:20:01.360Z,8.7
2023-01-13T20:30:01.525Z,8.5
2023-01-13T20:40:01.549Z,8.4
2023-01-13T20:50:01.058Z,8.4
2023-01-13T21:00:02.400Z,8.3
2023-01-13T21:10:01.539Z,8.3
2023-01-13T21:20:02.326Z,8.3
2023-01-13T21:30:03.424Z,8.1
2023-01-13T21:40:00.548Z,7.9
2023-01-13T21:50:00.991Z,8.1
2023-01-13T22:00:01.153Z,8.3
2023-01-13T22:10:02.774Z,7.9
2023-01-13T22:20:01.585Z,7.9
2023-01-13T22:30:01.842Z,7.8
2023-01-13T22:40:01.269Z,7.7
2023-01-13T23:00:01.006Z,7.7
2023-01-13T23:10:01.115Z,7.4
2023-01-13T23:20:01.231Z,7.4
2023-01-13T23:30:01.368Z,7.5
2023-01-13T23:40:01.004Z,7.4
2023-01-13T23:50:01.632Z,7.6
